Time;durP1;ratioP1;P1;durP2;ratioP2;P2;SDS_P1;SDS_P2;PMS_P1;PMS_P2;Temp;Humidity;BMP_temperature;BMP_pressure;BME280_temperature;BME280_humidity;BME280_pressure;Samples;Min_cycle;Max_cycle;Signal;HPM_P1;HPM_P2
2022/09/27 00:00:43;;;;;;;2.78;0.65;;;;;;;;;;6248539;23;20364;-83
2022/09/27 00:03:10;;;;;;;1.35;0.50;;;10.10;99.90;;;;;;6246297;23;20149;-83
2022/09/27 00:05:36;;;;;;;0.60;0.60;;;;;;;;;;6245463;22;20145;-82
2022/09/27 00:08:02;;;;;;;0.37;0.37;;;;;;;;;;6242483;23;20250;-83
2022/09/27 00:10:28;;;;;;;2.75;1.10;;;;;;;;;;6246170;23;20451;-83
2022/09/27 00:12:54;;;;;;;0.57;0.57;;;10.70;99.90;;;;;;6241231;23;20157;-83
2022/09/27 00:15:20;;;;;;;0.83;0.67;;;;;;;;;;6236521;23;20748;-82
2022/09/27 00:17:50;;;;;;;1.45;0.50;;;;;;;;;;6240053;23;20387;-83
2022/09/27 00:20:18;;;;;;;0.68;0.68;;;10.10;99.90;;;;;;6244025;23;20144;-83
2022/09/27 00:22:44;;;;;;;0.75;0.55;;;;;;;;;;6238024;23;20172;-83
2022/09/27 00:25:10;;;;;;;1.00;0.73;;;;;;;;;;6245521;23;20785;-83
2022/09/27 00:27:36;;;;;;;0.60;0.60;;;;;;;;;;6245429;23;20406;-83
2022/09/27 00:30:02;;;;;;;0.70;0.57;;;;;;;;;;6246402;23;20402;-84
2022/09/27 00:32:28;;;;;;;0.50;0.50;;;;;;;;;;6248416;23;20366;-83
2022/09/27 00:34:54;;;;;;;0.60;0.50;;;;;;;;;;6246646;23;20505;-82
2022/09/27 00:37:20;;;;;;;0.47;0.40;;;;;;;;;;6247221;23;20407;-83
2022/09/27 00:39:46;;;;;;;0.80;0.40;;;;;;;;;;6249106;23;20947;-83
2022/09/27 00:42:12;;;;;;;1.90;0.70;;;;;;;;;;6245723;23;21070;-83
2022/09/27 00:44:38;;;;;;;2.88;0.40;;;;;;;;;;6248865;23;20366;-82
2022/09/27 00:47:26;;;;;;;1.27;0.60;;;10.20;99.90;;;;;;6244663;23;20643;-83
2022/09/27 00:50:18;;;;;;;1.58;0.57;;;10.40;99.90;;;;;;6247226;23;20380;-83
2022/09/27 00:53:01;;;;;;;2.35;0.50;;;10.20;99.90;;;;;;6245387;23;20148;-82
2022/09/27 00:55:32;;;;;;;2.35;0.55;;;10.20;99.90;;;;;;6248317;22;20156;-83
2022/09/27 00:57:58;;;;;;;0.50;0.50;;;;;;;;;;6249192;22;20208;-83
2022/09/27 01:00:23;;;;;;;1.20;1.10;;;10.00;99.90;;;;;;6245672;23;20410;-82
2022/09/27 01:02:52;;;;;;;1.43;0.80;;;10.30;99.90;;;;;;6242473;23;20165;-82
2022/09/27 01:05:20;;;;;;;0.70;0.40;;;10.30;99.90;;;;;;6242799;23;20654;-83
2022/09/27 01:07:46;;;;;;;0.60;0.60;;;;;;;;;;6244416;22;20164;-83
2022/09/27 01:10:12;;;;;;;0.98;0.43;;;;;;;;;;6245078;23;20223;-82
2022/09/27 01:13:18;;;;;;;0.50;0.50;;;10.20;99.90;;;;;;6242199;23;20171;-83
2022/09/27 01:15:44;;;;;;;0.50;0.40;;;;;;;;;;6244591;22;20149;-82
2022/09/27 01:18:36;;;;;;;0.60;0.60;;;10.20;99.90;;;;;;6241067;23;20511;-83
2022/09/27 01:21:20;;;;;;;1.00;0.57;;;10.50;99.90;;;;;;6245730;22;20481;-82
2022/09/27 01:23:47;;;;;;;0.50;0.50;;;;;;;;;;6245036;23;20129;-85
2022/09/27 01:26:22;;;;;;;1.58;0.60;;;;;;;;;;6243749;23;20203;-83
2022/09/27 01:29:25;;;;;;;1.02;0.55;;;10.10;99.90;;;;;;6239201;23;20168;-81
2022/09/27 01:32:17;;;;;;;1.08;0.60;;;10.00;99.90;;;;;;6211778;23;20155;-83
2022/09/27 01:35:03;;;;;;;1.17;0.70;;;10.10;99.90;;;;;;6240881;23;20156;-84
2022/09/27 01:38:00;;;;;;;1.00;1.00;;;9.70;99.90;;;;;;6240011;23;20222;-84
2022/09/27 01:40:41;;;;;;;2.05;0.82;;;10.10;99.90;;;;;;6241911;22;20742;-85
2022/09/27 01:43:16;;;;;;;0.60;0.52;;;9.90;99.90;;;;;;6239894;23;20152;-85
2022/09/27 01:45:45;;;;;;;1.08;0.65;;;10.10;99.90;;;;;;6242600;23;20144;-84
2022/09/27 01:48:34;;;;;;;1.55;0.65;;;10.10;99.90;;;;;;6241823;23;20227;-85
2022/09/27 01:51:45;;;;;;;2.97;0.88;;;10.10;99.90;;;;;;6244372;23;20211;-84
2022/09/27 01:54:17;;;;;;;1.90;0.90;;;10.10;99.90;;;;;;6244414;23;20156;-84
2022/09/27 01:56:48;;;;;;;1.10;0.95;;;10.40;99.90;;;;;;6247167;22;20148;-84
2022/09/27 01:59:27;;;;;;;1.58;0.95;;;10.10;99.90;;;;;;6249367;23;20149;-83
2022/09/27 02:01:56;;;;;;;1.40;0.80;;;10.10;99.90;;;;;;6246344;23;20168;-83
2022/09/27 02:04:26;;;;;;;0.65;0.65;;;10.10;99.90;;;;;;6247500;22;20704;-82
2022/09/27 02:06:58;;;;;;;1.77;0.90;;;10.00;99.90;;;;;;6245980;23;20148;-82
2022/09/27 02:09:32;;;;;;;2.65;0.90;;;10.00;99.90;;;;;;6249844;22;20212;-82
2022/09/27 02:12:04;;;;;;;1.67;1.00;;;10.00;99.90;;;;;;6249875;22;20195;-83
2022/09/27 02:14:49;;;;;;;4.93;1.30;;;9.80;99.90;;;;;;6244386;23;20162;-83
2022/09/27 02:17:33;;;;;;;3.70;1.70;;;9.90;99.90;;;;;;6242163;23;20582;-83
2022/09/27 02:20:02;;;;;;;7.47;1.48;;;9.80;99.90;;;;;;6246078;22;20487;-83
2022/09/27 02:22:39;;;;;;;8.57;2.20;;;9.60;99.90;;;;;;6242255;23;20242;-83
2022/09/27 02:25:37;;;;;;;3.67;1.38;;;9.80;99.90;;;;;;6244756;22;20139;-85
2022/09/27 02:28:50;;;;;;;2.78;1.30;;;9.50;99.90;;;;;;6244311;22;20160;-84
2022/09/27 02:31:16;;;;;;;3.30;1.10;;;;;;;;;;6179847;23;20162;-83
2022/09/27 02:33:58;;;;;;;1.53;1.00;;;9.50;99.90;;;;;;6178982;23;20160;-83
2022/09/27 02:36:24;;;;;;;4.45;1.40;;;;;;;;;;6217929;23;20478;-83
2022/09/27 02:38:50;;;;;;;2.38;1.40;;;;;;;;;;6244008;23;20926;-83
2022/09/27 02:41:18;;;;;;;5.27;2.30;;;9.50;99.90;;;;;;6245561;23;20174;-82
2022/09/27 02:43:46;;;;;;;3.05;1.20;;;9.50;99.90;;;;;;6246032;22;20476;-84
2022/09/27 02:46:15;;;;;;;3.75;1.63;;;9.50;99.90;;;;;;6246407;23;20531;-83
2022/09/27 02:49:19;;;;;;;8.25;1.88;;;9.40;99.90;;;;;;6245035;23;20180;-84
2022/09/27 02:52:11;;;;;;;2.55;1.60;;;9.60;99.90;;;;;;6166832;23;20183;-83
2022/09/27 02:54:37;;;;;;;5.82;1.88;;;;;;;;;;6249828;22;20148;-83
2022/09/27 02:57:35;;;;;;;3.87;1.57;;;9.50;99.90;;;;;;6249980;23;20492;-83
2022/09/27 03:00:19;;;;;;;4.63;2.22;;;9.50;99.90;;;;;;6195134;23;20379;-83
2022/09/27 03:03:10;;;;;;;2.50;1.95;;;9.50;99.90;;;;;;6240700;22;20165;-82
2022/09/27 03:05:45;;;;;;;6.85;2.33;;;9.50;99.90;;;;;;6235560;23;20160;-83
2022/09/27 03:08:12;;;;;;;3.85;1.85;;;9.50;99.90;;;;;;6243484;22;20164;-83
2022/09/27 03:10:38;;;;;;;4.55;2.10;;;;;;;;;;6245851;23;20159;-83
2022/09/27 03:13:04;;;;;;;3.13;1.43;;;;;;;;;;6243434;23;20161;-82
2022/09/27 03:15:30;;;;;;;4.10;2.20;;;9.40;99.90;;;;;;6247257;23;20379;-83
2022/09/27 03:17:56;;;;;;;4.45;1.67;;;;;;;;;;6244413;22;20164;-84
2022/09/27 03:20:22;;;;;;;4.60;2.70;;;;;;;;;;6241202;23;20163;-84
2022/09/27 03:22:48;;;;;;;5.93;2.42;;;;;;;;;;6245929;23;20910;-84
2022/09/27 03:25:14;;;;;;;7.50;2.50;;;9.80;99.90;;;;;;6248588;23;20140;-82
2022/09/27 03:27:40;;;;;;;4.23;2.17;;;;;;;;;;6248471;23;20422;-85
2022/09/27 03:30:06;;;;;;;7.18;2.58;;;;;;;;;;6244419;23;20152;-83
2022/09/27 03:32:32;;;;;;;6.15;3.08;;;9.70;99.90;;;;;;6246025;23;20149;-83
2022/09/27 03:34:58;;;;;;;12.98;2.92;;;;;;;;;;6249483;23;20172;-82
2022/09/27 03:37:28;;;;;;;6.45;2.33;;;9.60;99.90;;;;;;6243722;23;20176;-83
2022/09/27 03:39:53;;;;;;;4.43;3.00;;;9.50;99.90;;;;;;6241968;22;20132;-83
2022/09/27 03:42:19;;;;;;;3.77;2.40;;;;;;;;;;6243734;23;20850;-83
2022/09/27 03:44:45;;;;;;;6.47;3.23;;;;;;;;;;6242814;23;20148;-82
2022/09/27 03:47:11;;;;;;;4.53;3.00;;;;;;;;;;6248270;23;20391;-83
2022/09/27 03:49:37;;;;;;;3.57;2.30;;;;;;;;;;6245719;23;20443;-83
2022/09/27 03:52:03;;;;;;;5.90;3.13;;;;;;;;;;6242383;23;20470;-83
2022/09/27 03:54:29;;;;;;;7.93;2.83;;;;;;;;;;6243928;23;20453;-84
2022/09/27 03:56:55;;;;;;;10.27;3.00;;;;;;;;;;6246587;23;20476;-83
2022/09/27 03:59:20;;;;;;;12.20;3.00;;;9.20;99.90;;;;;;6245617;23;20364;-82
2022/09/27 04:01:46;;;;;;;10.20;3.80;;;;;;;;;;6243568;23;20454;-84
2022/09/27 04:04:13;;;;;;;11.00;3.30;;;;;;;;;;6244586;23;20580;-84
2022/09/27 04:06:39;;;;;;;4.20;3.80;;;;;;;;;;6246326;22;20367;-84
2022/09/27 04:09:05;;;;;;;3.83;1.83;;;;;;;;;;6241850;23;21014;-84
2022/09/27 04:11:30;;;;;;;4.43;2.53;;;;;;;;;;6245354;23;20433;-83
2022/09/27 04:13:57;;;;;;;8.03;2.27;;;;;;;;;;6248095;23;20371;-82
2022/09/27 04:16:24;;;;;;;4.20;2.58;;;;;;;;;;6251806;22;20375;-83
2022/09/27 04:18:50;;;;;;;4.50;1.75;;;;;;;;;;6253070;22;20566;-84
2022/09/27 04:21:16;;;;;;;3.40;2.25;;;;;;;;;;6253009;23;20152;-83
2022/09/27 04:23:42;;;;;;;7.70;2.43;;;;;;;;;;6253841;23;20144;-82
2022/09/27 04:26:08;;;;;;;5.00;2.40;;;9.50;99.90;;;;;;6252628;23;20371;-84
2022/09/27 04:28:34;;;;;;;8.43;2.45;;;;;;;;;;6241395;23;20922;-83
2022/09/27 04:31:00;;;;;;;7.70;2.57;;;;;;;;;;6247875;23;20159;-83
2022/09/27 04:33:26;;;;;;;9.30;2.83;;;;;;;;;;6247272;23;20375;-82
2022/09/27 04:38:37;;;;;;;6.47;2.65;;;9.40;99.90;;;;;;6253583;23;20414;-82
2022/09/27 04:41:06;;;;;;;20.92;2.30;;;;;;;;;;6254859;22;20152;-81
2022/09/27 04:43:32;;;;;;;4.93;2.50;;;;;;;;;;6247426;23;20157;-84
2022/09/27 04:45:57;;;;;;;9.67;2.17;;;;;;;;;;6245634;23;20147;-83
2022/09/27 04:48:23;;;;;;;8.53;3.00;;;9.40;99.90;;;;;;6247164;23;20395;-82
2022/09/27 04:51:01;;;;;;;5.63;2.17;;;9.30;99.90;;;;;;6252890;23;20893;-82
2022/09/27 04:53:28;;;;;;;4.35;2.70;;;;;;;;;;6251173;22;20125;-81
2022/09/27 04:55:54;;;;;;;5.80;2.20;;;;;;;;;;6247516;22;20219;-82
2022/09/27 04:58:21;;;;;;;9.43;2.05;;;9.10;99.90;;;;;;6246193;23;20177;-82
2022/09/27 05:00:47;;;;;;;2.42;1.38;;;9.20;99.90;;;;;;6251821;23;20196;-82
2022/09/27 05:03:16;;;;;;;2.47;2.25;;;9.60;99.90;;;;;;6253499;22;20140;-82
2022/09/27 05:05:42;;;;;;;4.63;2.28;;;;;;;;;;6250849;23;20148;-82
2022/09/27 05:08:08;;;;;;;5.00;2.00;;;;;;;;;;6235114;23;20197;-83
2022/09/27 05:10:34;;;;;;;4.60;2.13;;;;;;;;;;6240341;23;20513;-83
2022/09/27 05:12:59;;;;;;;1.88;1.70;;;9.30;99.90;;;;;;6224601;23;20478;-84
2022/09/27 05:15:25;;;;;;;5.93;2.17;;;;;;;;;;6239697;23;20157;-84
2022/09/27 05:17:51;;;;;;;8.73;2.83;;;;;;;;;;6236450;23;20187;-84
2022/09/27 05:20:18;;;;;;;4.53;2.40;;;;;;;;;;6244285;23;20157;-84
2022/09/27 05:22:44;;;;;;;3.67;2.20;;;;;;;;;;6241401;23;20403;-84
2022/09/27 05:25:09;;;;;;;5.47;1.98;;;9.20;99.90;;;;;;6241317;23;20565;-84
2022/09/27 05:27:35;;;;;;;1.17;1.07;;;;;;;;;;6242776;23;20179;-84
2022/09/27 05:30:01;;;;;;;5.93;1.52;;;;;;;;;;6242320;23;20140;-84
2022/09/27 05:32:28;;;;;;;8.43;2.35;;;9.20;99.90;;;;;;6241992;23;20153;-84
2022/09/27 05:34:54;;;;;;;5.70;2.20;;;9.30;99.90;;;;;;6241697;23;20247;-84
2022/09/27 05:37:20;;;;;;;2.40;1.60;;;;;;;;;;6239524;23;20191;-84
2022/09/27 05:39:46;;;;;;;4.13;1.77;;;;;;;;;;6242868;23;20372;-84
2022/09/27 05:42:14;;;;;;;5.90;1.90;;;;;;;;;;6242454;23;20164;-83
2022/09/27 05:44:40;;;;;;;1.95;1.55;;;;;;;;;;6241897;22;20390;-84
2022/09/27 05:47:06;;;;;;;1.80;1.67;;;;;;;;;;6243150;23;20164;-84
2022/09/27 05:49:32;;;;;;;2.90;1.60;;;9.20;99.90;;;;;;6242291;23;20152;-84
2022/09/27 05:51:58;;;;;;;1.83;1.50;;;;;;;;;;6231469;23;20375;-84
2022/09/27 05:54:24;;;;;;;2.45;1.52;;;;;;;;;;6239563;23;20156;-83
2022/09/27 05:56:57;;;;;;;3.17;1.50;;;9.10;99.90;;;;;;6245472;23;20487;-83
2022/09/27 05:59:23;;;;;;;3.70;1.20;;;;;;;;;;6242695;23;20379;-83
2022/09/27 06:01:49;;;;;;;2.42;1.45;;;;;;;;;;6242994;23;20204;-84
2022/09/27 06:04:15;;;;;;;1.83;1.10;;;;;;;;;;6240407;23;20152;-84
2022/09/27 06:06:41;;;;;;;4.07;1.53;;;;;;;;;;6238572;23;20201;-83
2022/09/27 06:09:10;;;;;;;3.00;1.43;;;9.10;99.90;;;;;;6240608;23;20403;-83
2022/09/27 06:11:36;;;;;;;4.07;1.75;;;;;;;;;;6243473;22;20442;-83
2022/09/27 06:14:01;;;;;;;10.37;1.77;;;;;;;;;;6239034;23;20487;-83
2022/09/27 06:16:27;;;;;;;3.63;2.00;;;;;;;;;;6239818;23;20375;-83
2022/09/27 06:18:54;;;;;;;3.40;1.83;;;;;;;;;;6242342;23;20398;-83
2022/09/27 06:21:19;;;;;;;2.22;1.60;;;;;;;;;;6240775;23;20452;-83
2022/09/27 06:23:46;;;;;;;2.77;1.73;;;;;;;;;;6241816;23;20221;-83
2022/09/27 06:26:11;;;;;;;4.32;1.98;;;9.40;99.90;;;;;;6245110;22;20674;-83
2022/09/27 06:28:37;;;;;;;9.00;2.83;;;;;;;;;;6245702;23;20168;-83
2022/09/27 06:31:07;;;;;;;3.67;2.75;;;9.30;99.90;;;;;;6246118;23;20147;-82
2022/09/27 06:33:33;;;;;;;2.40;2.15;;;9.40;99.90;;;;;;6244189;22;20128;-85
2022/09/27 06:36:04;;;;;;;2.67;2.20;;;9.20;99.90;;;;;;6243023;23;20166;-83
2022/09/27 06:38:30;;;;;;;6.68;2.13;;;9.50;99.90;;;;;;6246164;22;20509;-82
2022/09/27 06:41:02;;;;;;;2.70;1.93;;;9.40;99.90;;;;;;6241807;23;20303;-83
2022/09/27 06:43:30;;;;;;;2.78;2.28;;;;;;;;;;6241437;22;20137;-85
2022/09/27 06:46:04;;;;;;;4.53;2.47;;;9.30;99.90;;;;;;6243008;23;20159;-83
2022/09/27 06:48:31;;;;;;;4.90;2.05;;;9.30;99.90;;;;;;6245680;23;20271;-84
2022/09/27 06:50:58;;;;;;;2.03;1.85;;;;;;;;;;6249288;22;20149;-83
2022/09/27 06:53:24;;;;;;;4.30;2.17;;;;;;;;;;6245169;23;20152;-83
2022/09/27 06:55:50;;;;;;;1.98;1.13;;;;;;;;;;6245008;23;20224;-83
2022/09/27 07:01:01;;;;;;;4.70;1.95;;;;;;;;;;6245276;23;20187;-83
2022/09/27 07:03:31;;;;;;;2.70;1.80;;;9.30;99.90;;;;;;6247235;23;20155;-85
2022/09/27 07:06:01;;;;;;;3.45;1.80;;;9.30;99.90;;;;;;6246605;23;20152;-83
2022/09/27 07:08:28;;;;;;;3.47;1.60;;;9.40;99.90;;;;;;6244632;22;20240;-83
2022/09/27 07:11:05;;;;;;;3.38;1.60;;;9.40;99.90;;;;;;6246974;22;20587;-85
2022/09/27 07:13:33;;;;;;;2.08;1.90;;;;;;;;;;6244564;23;20209;-85
2022/09/27 07:15:59;;;;;;;3.40;1.60;;;9.30;99.90;;;;;;6246750;22;20533;-85
2022/09/27 07:18:25;;;;;;;8.55;2.22;;;;;;;;;;6244071;22;20175;-85
2022/09/27 07:20:51;;;;;;;2.22;1.63;;;9.60;99.90;;;;;;6247237;22;20151;-85
2022/09/27 07:23:17;;;;;;;1.93;1.40;;;;;;;;;;6247252;22;20356;-84
2022/09/27 07:25:43;;;;;;;1.73;1.30;;;;;;;;;;6244769;23;20153;-84
2022/09/27 07:28:13;;;;;;;1.70;1.60;;;9.40;99.90;;;;;;6241573;23;20440;-85
2022/09/27 07:30:40;;;;;;;1.25;1.13;;;;;;;;;;6247600;22;20299;-85
2022/09/27 07:33:08;;;;;;;1.35;1.20;;;9.70;99.90;;;;;;6243289;23;20161;-85
2022/09/27 07:35:36;;;;;;;1.95;1.20;;;;;;;;;;6244246;22;20132;-85
2022/09/27 07:38:04;;;;;;;4.38;1.50;;;;;;;;;;6245087;22;20288;-84
2022/09/27 07:40:30;;;;;;;2.42;1.52;;;;;;;;;;6248131;23;20157;-82
2022/09/27 07:42:56;;;;;;;1.08;0.85;;;9.60;99.90;;;;;;6248372;23;20199;-83
2022/09/27 07:45:23;;;;;;;1.27;1.05;;;;;;;;;;6250247;22;20147;-83
2022/09/27 07:47:49;;;;;;;1.40;1.30;;;9.50;99.90;;;;;;6249627;22;20164;-84
2022/09/27 07:50:15;;;;;;;1.50;1.23;;;;;;;;;;6249160;23;20152;-85
2022/09/27 07:52:42;;;;;;;2.90;1.50;;;9.70;99.90;;;;;;6248825;23;20364;-82
2022/09/27 07:55:12;;;;;;;3.72;1.10;;;9.90;99.90;;;;;;6251816;22;20152;-83
2022/09/27 07:57:39;;;;;;;2.35;1.30;;;9.90;99.90;;;;;;6248815;23;20178;-84
2022/09/27 08:00:09;;;;;;;1.27;1.17;;;10.10;99.90;;;;;;6245197;22;20168;-84
2022/09/27 08:02:35;;;;;;;1.42;1.30;;;;;;;;;;6249496;22;20168;-85
2022/09/27 08:05:02;;;;;;;3.67;1.67;;;;;;;;;;6245593;23;20322;-84
2022/09/27 08:07:28;;;;;;;2.47;1.60;;;10.40;99.90;;;;;;6244726;23;20456;-84
2022/09/27 08:09:54;;;;;;;5.28;1.83;;;;;;;;;;6247533;23;20153;-85
2022/09/27 08:12:20;;;;;;;2.85;1.40;;;;;;;;;;6247407;23;20460;-85
2022/09/27 08:14:46;;;;;;;4.57;3.10;;;;;;;;;;6250255;23;20167;-85
2022/09/27 08:17:12;;;;;;;2.20;1.95;;;;;;;;;;6249165;23;20148;-84
2022/09/27 08:19:39;;;;;;;1.83;1.10;;;;;;;;;;6245280;23;20722;-85
2022/09/27 08:22:05;;;;;;;1.40;1.30;;;;;;;;;;6252438;22;20165;-84
2022/09/27 08:24:31;;;;;;;7.30;1.20;;;;;;;;;;6250013;23;20155;-82
2022/09/27 08:26:57;;;;;;;3.53;0.80;;;;;;;;;;6250528;23;20145;-83
2022/09/27 08:29:23;;;;;;;1.52;1.20;;;11.40;99.90;;;;;;6250164;23;20168;-84
2022/09/27 08:31:53;;;;;;;7.93;1.23;;;12.10;99.90;;;;;;6248413;23;20188;-81
2022/09/27 08:34:19;;;;;;;1.63;1.52;;;12.30;99.90;;;;;;6251439;23;20267;-83
2022/09/27 08:36:45;;;;;;;1.70;1.20;;;;;;;;;;6251914;22;20144;-81
2022/09/27 08:39:11;;;;;;;5.40;1.43;;;;;;;;;;6250153;23;20210;-81
2022/09/27 08:41:58;;;;;;;7.27;1.63;;;11.00;99.90;;;;;;6250413;23;20433;-82
2022/09/27 08:45:02;;;;;;;2.40;1.50;;;10.30;99.90;;;;;;6219988;23;20368;-84
2022/09/27 08:47:38;;;;;;;2.45;1.05;;;11.10;99.90;;;;;;6248654;23;20141;-84
2022/09/27 08:50:35;;;;;;;5.07;1.25;;;11.70;99.90;;;;;;6252667;23;20594;-82
2022/09/27 08:53:31;;;;;;;1.73;1.35;;;12.50;99.90;;;;;;6250963;22;20133;-82
2022/09/27 08:55:58;;;;;;;6.25;1.40;;;12.50;99.90;;;;;;6251351;23;20186;-81
2022/09/27 08:58:31;;;;;;;0.77;0.70;;;11.90;99.90;;;;;;6250222;23;20702;-83
2022/09/27 09:00:59;;;;;;;1.80;1.17;;;11.60;99.90;;;;;;6252528;23;20160;-82
2022/09/27 09:03:28;;;;;;;1.10;1.10;;;11.60;99.90;;;;;;6252546;23;20550;-83
2022/09/27 09:06:33;;;;;;;1.35;1.25;;;11.70;99.90;;;;;;6252198;22;20144;-82
2022/09/27 09:09:27;;;;;;;2.40;1.50;;;11.80;99.90;;;;;;6242020;23;20666;-85
2022/09/27 09:15:00;;;;;;;1.90;1.52;;;12.50;99.90;;;;;;6247821;23;20175;-87
2022/09/27 09:17:50;;;;;;;3.78;1.65;;;12.60;99.90;;;;;;6244777;23;20431;-87
2022/09/27 09:20:41;;;;;;;2.85;1.92;;;12.50;99.90;;;;;;6243017;23;20216;-85
2022/09/27 09:23:27;;;;;;;4.10;1.65;;;14.20;99.90;;;;;;6244471;23;20611;-87
2022/09/27 09:26:10;;;;;;;3.45;2.05;;;13.00;99.90;;;;;;6244475;22;20147;-84
2022/09/27 09:28:45;;;;;;;2.60;1.40;;;13.00;99.90;;;;;;6243104;23;20807;-85
2022/09/27 09:31:31;;;;;;;1.95;1.42;;;12.70;99.90;;;;;;6243138;23;20574;-85
2022/09/27 09:34:17;;;;;;;2.00;1.70;;;13.10;99.90;;;;;;6244185;23;20163;-85
2022/09/27 09:36:48;;;;;;;4.20;2.10;;;12.70;99.90;;;;;;6242734;23;20227;-87
2022/09/27 09:39:21;;;;;;;1.85;1.70;;;12.30;99.90;;;;;;6244043;22;20181;-85
2022/09/27 09:41:52;;;;;;;5.80;2.03;;;12.30;99.90;;;;;;6245485;23;20179;-85
2022/09/27 09:44:26;;;;;;;3.25;2.22;;;12.20;99.90;;;;;;6243921;23;20602;-84
2022/09/27 09:46:56;;;;;;;3.03;1.48;;;12.30;99.90;;;;;;6246051;22;20167;-83
2022/09/27 09:49:34;;;;;;;6.80;1.90;;;12.10;99.90;;;;;;6245793;23;20232;-85
2022/09/27 09:52:05;;;;;;;7.20;2.60;;;11.90;99.90;;;;;;6245036;23;20140;-84
2022/09/27 09:54:37;;;;;;;3.03;2.28;;;11.80;99.90;;;;;;6247081;22;20141;-85
2022/09/27 09:57:14;;;;;;;4.30;1.90;;;12.10;99.90;;;;;;6248594;22;20141;-82
2022/09/27 10:00:04;;;;;;;3.17;2.03;;;12.50;99.90;;;;;;6246443;23;20267;-84
2022/09/27 10:02:36;;;;;;;4.43;2.65;;;13.20;99.90;;;;;;6234137;22;20675;-82
2022/09/27 10:05:02;;;;;;;4.55;1.73;;;13.30;99.90;;;;;;6244303;22;20156;-83
2022/09/27 10:07:28;;;;;;;6.85;2.28;;;;;;;;;;6244587;23;20183;-83
2022/09/27 10:09:57;;;;;;;5.47;2.25;;;12.30;99.90;;;;;;6248664;23;20472;-83
2022/09/27 10:12:23;;;;;;;4.45;2.20;;;;;;;;;;6248254;22;20180;-81
2022/09/27 10:14:51;;;;;;;8.43;2.20;;;12.00;99.90;;;;;;6244740;23;20179;-84
2022/09/27 10:17:21;;;;;;;2.47;2.13;;;11.70;99.90;;;;;;6245928;22;20371;-82
2022/09/27 10:19:50;;;;;;;5.28;1.80;;;11.90;99.90;;;;;;6247620;23;20145;-83
2022/09/27 10:22:23;;;;;;;9.60;4.28;;;11.90;99.90;;;;;;6247463;22;20173;-83
2022/09/27 10:24:55;;;;;;;8.10;2.15;;;12.00;99.90;;;;;;6246036;23;20151;-83
2022/09/27 10:27:22;;;;;;;2.90;2.10;;;11.90;99.90;;;;;;6245116;23;20163;-82
2022/09/27 10:29:56;;;;;;;5.07;1.88;;;11.90;99.90;;;;;;6250879;22;20208;-82
2022/09/27 10:32:26;;;;;;;2.70;2.10;;;12.00;99.90;;;;;;6248492;22;20189;-81
2022/09/27 10:34:52;;;;;;;2.58;2.35;;;;;;;;;;6244799;22;20141;-82
2022/09/27 10:37:21;;;;;;;5.18;2.08;;;11.70;99.90;;;;;;6245484;23;20153;-82
2022/09/27 10:39:49;;;;;;;1.55;1.40;;;11.50;99.90;;;;;;6247982;23;20609;-83
2022/09/27 10:42:37;;;;;;;3.55;2.75;;;11.20;99.90;;;;;;6247981;22;20304;-81
2022/09/27 10:45:32;;;;;;;5.80;1.67;;;11.20;99.90;;;;;;6248110;23;20160;-81
2022/09/27 10:48:01;;;;;;;2.40;2.20;;;10.90;99.90;;;;;;6249628;23;20559;-83
2022/09/27 10:50:29;;;;;;;6.57;2.00;;;10.60;99.90;;;;;;6252134;23;20191;-84
2022/09/27 10:53:02;;;;;;;11.90;2.55;;;10.90;99.90;;;;;;6240927;23;20465;-80
2022/09/27 10:55:32;;;;;;;2.70;2.50;;;11.00;99.90;;;;;;6247430;22;20351;-81
2022/09/27 10:57:58;;;;;;;1.40;1.30;;;;;;;;;;6249885;23;20211;-81
2022/09/27 11:00:32;;;;;;;3.95;2.88;;;11.20;99.90;;;;;;6249774;23;20152;-83
2022/09/27 11:03:06;;;;;;;2.80;1.80;;;10.90;99.90;;;;;;6247083;23;20176;-83
2022/09/27 11:05:32;;;;;;;2.08;1.90;;;;;;;;;;6247590;23;20590;-83
2022/09/27 11:08:02;;;;;;;4.82;2.42;;;10.30;99.90;;;;;;6245791;23;20639;-83
2022/09/27 11:10:33;;;;;;;3.20;2.08;;;10.60;99.90;;;;;;6245121;22;20568;-84
2022/09/27 11:13:07;;;;;;;3.75;1.90;;;10.90;99.90;;;;;;6244772;23;20157;-83
2022/09/27 11:15:57;;;;;;;3.70;1.70;;;11.00;99.90;;;;;;6243535;23;20164;-85
2022/09/27 11:18:44;;;;;;;3.22;1.45;;;10.90;99.90;;;;;;6244980;23;20519;-82
2022/09/27 11:21:55;;;;;;;3.22;2.03;;;10.50;99.90;;;;;;6248739;23;20136;-83
2022/09/27 11:24:23;;;;;;;2.45;1.50;;;;;;;;;;6249502;23;20132;-86
2022/09/27 11:27:04;;;;;;;3.53;2.25;;;9.70;99.90;;;;;;6245998;23;20152;-84
2022/09/27 11:29:38;;;;;;;2.25;1.25;;;9.20;99.90;;;;;;6248675;23;20176;-85
2022/09/27 11:32:24;;;;;;;3.97;1.30;;;8.70;99.90;;;;;;6248677;23;20231;-85
2022/09/27 11:35:23;;;;;;;0.82;0.63;;;8.60;99.90;;;;;;6245941;23;20251;-84
2022/09/27 11:38:18;;;;;;;1.30;0.93;;;8.80;99.90;;;;;;6246562;23;20192;-85
2022/09/27 11:41:10;;;;;;;0.60;0.50;;;8.70;99.90;;;;;;6246873;23;20170;-83
2022/09/27 11:43:51;;;;;;;0.50;0.35;;;8.50;99.90;;;;;;6248562;22;20660;-84
2022/09/27 11:46:32;;;;;;;0.45;0.40;;;8.60;99.90;;;;;;6246783;23;20136;-84
2022/09/27 11:48:58;;;;;;;1.50;0.50;;;;;;;;;;6247746;23;20187;-83
2022/09/27 11:51:52;;;;;;;3.25;0.63;;;8.70;99.90;;;;;;6248648;23;20180;-84
2022/09/27 11:54:17;;;;;;;0.73;0.60;;;;;;;;;;6245680;23;20156;-84
2022/09/27 11:56:52;;;;;;;1.03;0.63;;;8.80;99.90;;;;;;6248034;23;20161;-85
2022/09/27 11:59:55;;;;;;;1.38;0.50;;;8.80;99.90;;;;;;6248169;23;20678;-84
2022/09/27 12:02:50;;;;;;;0.90;0.70;;;8.70;99.90;;;;;;6248086;23;20184;-83
2022/09/27 12:05:22;;;;;;;1.88;0.70;;;8.70;99.90;;;;;;6249836;22;20129;-83
2022/09/27 12:08:16;;;;;;;0.80;0.50;;;8.70;99.90;;;;;;6248993;23;20172;-84
2022/09/27 12:10:47;;;;;;;0.50;0.47;;;8.80;99.90;;;;;;6250601;23;20145;-85
2022/09/27 12:13:15;;;;;;;5.85;0.85;;;8.70;99.90;;;;;;6247887;23;20167;-85
2022/09/27 12:15:44;;;;;;;2.78;1.30;;;8.60;99.90;;;;;;6250364;22;20182;-85
2022/09/27 12:18:31;;;;;;;5.03;1.13;;;8.60;99.90;;;;;;6248222;23;20232;-82
2022/09/27 12:21:02;;;;;;;1.73;0.63;;;8.60;99.90;;;;;;6249930;23;20241;-83
2022/09/27 12:23:40;;;;;;;2.08;0.60;;;8.50;99.90;;;;;;6250888;22;20137;-82
2022/09/27 12:26:12;;;;;;;2.70;0.93;;;8.60;99.90;;;;;;6249334;22;20139;-86
2022/09/27 12:28:55;;;;;;;3.50;1.10;;;8.70;99.90;;;;;;6250345;22;20219;-82
2022/09/27 12:31:29;;;;;;;1.63;0.75;;;8.90;99.90;;;;;;6247877;23;20149;-82
2022/09/27 12:34:17;;;;;;;1.25;0.90;;;9.10;99.90;;;;;;6247648;22;20448;-83
2022/09/27 12:37:06;;;;;;;1.45;0.50;;;9.40;99.90;;;;;;6247212;23;20149;-82
2022/09/27 12:39:44;;;;;;;1.30;0.70;;;9.40;99.90;;;;;;6244564;23;20188;-85
2022/09/27 12:42:24;;;;;;;1.00;0.80;;;9.60;99.90;;;;;;6246991;23;20174;-83
2022/09/27 12:44:50;;;;;;;1.70;0.80;;;10.10;99.90;;;;;;6250244;22;20132;-81
2022/09/27 12:47:32;;;;;;;0.95;0.80;;;9.90;99.90;;;;;;6244994;23;20156;-84
2022/09/27 12:50:32;;;;;;;2.90;1.05;;;9.80;99.90;;;;;;6245252;23;20147;-85
2022/09/27 12:53:12;;;;;;;0.93;0.70;;;10.00;99.90;;;;;;6245708;23;20149;-84
2022/09/27 12:55:38;;;;;;;1.20;0.93;;;;;;;;;;6244109;23;20149;-84
2022/09/27 12:58:52;;;;;;;0.70;0.60;;;9.80;99.90;;;;;;6244183;23;20710;-85
2022/09/27 13:01:31;;;;;;;1.33;1.02;;;9.80;99.90;;;;;;6238322;23;20391;-81
2022/09/27 13:04:09;;;;;;;0.60;0.50;;;9.80;99.90;;;;;;6247599;23;20137;-83
2022/09/27 13:06:51;;;;;;;2.15;1.10;;;9.80;99.90;;;;;;6247506;23;20171;-84
2022/09/27 13:09:38;;;;;;;2.25;1.27;;;10.40;99.90;;;;;;6244474;23;20182;-84
2022/09/27 13:12:13;;;;;;;2.17;0.80;;;10.80;99.90;;;;;;6245888;23;20164;-85
2022/09/27 13:15:05;;;;;;;0.50;0.50;;;10.90;99.90;;;;;;6247297;22;20160;-81
2022/09/27 13:17:39;;;;;;;2.22;1.17;;;11.20;99.90;;;;;;6235281;23;20160;-84
2022/09/27 13:20:27;;;;;;;0.88;0.47;;;11.10;99.90;;;;;;6247331;22;20152;-84
2022/09/27 13:22:53;;;;;;;0.60;0.57;;;10.80;99.90;;;;;;6241296;23;20491;-84
2022/09/27 13:25:53;;;;;;;2.50;0.82;;;11.10;99.90;;;;;;6243388;23;20159;-83
2022/09/27 13:28:28;;;;;;;1.35;0.73;;;11.50;99.90;;;;;;6245260;22;20168;-83
2022/09/27 13:31:01;;;;;;;0.80;0.80;;;11.70;99.90;;;;;;6246181;23;20156;-84
2022/09/27 13:33:32;;;;;;;2.30;0.90;;;11.30;99.90;;;;;;6246143;23;20156;-83
2022/09/27 13:36:07;;;;;;;1.20;1.00;;;11.20;99.90;;;;;;6251029;22;20164;-83
2022/09/27 13:38:33;;;;;;;0.60;0.60;;;;;;;;;;6230506;22;21047;-85
2022/09/27 13:41:18;;;;;;;0.98;0.93;;;11.40;99.90;;;;;;6236768;23;20172;-85
2022/09/27 13:44:13;;;;;;;4.45;0.82;;;11.10;99.90;;;;;;6234724;23;20167;-84
2022/09/27 13:46:54;;;;;;;2.55;1.08;;;11.50;99.90;;;;;;6242779;22;20133;-85
2022/09/27 13:49:36;;;;;;;1.45;0.95;;;11.30;99.90;;;;;;6265295;22;20138;-85
2022/09/27 13:52:19;;;;;;;1.05;0.90;;;11.50;99.90;;;;;;6244459;22;21069;-85
2022/09/27 13:54:54;;;;;;;0.50;0.50;;;11.10;99.90;;;;;;6252816;22;20129;-87
2022/09/27 13:57:40;;;;;;;0.80;0.70;;;11.40;99.90;;;;;;6262096;22;20162;-84
2022/09/27 14:00:21;;;;;;;1.98;0.88;;;11.40;99.90;;;;;;6239925;22;20168;-85
2022/09/27 14:03:11;;;;;;;3.28;0.80;;;11.50;99.90;;;;;;6239634;23;20176;-87
2022/09/27 14:05:58;;;;;;;1.25;0.77;;;11.60;99.90;;;;;;6241744;23;20483;-85
2022/09/27 14:08:42;;;;;;;0.73;0.73;;;11.10;99.90;;;;;;6235045;23;20919;-86
2022/09/27 14:11:32;;;;;;;1.40;1.30;;;11.70;99.90;;;;;;6241589;23;20168;-86